Aviation Digital Data Service (ADDS)

Output produced by METARs form (1825 UTC 18 April 2019)
found at http://www.aviationweather.gov/metar/data/
 
METAR text: NVSS 181800Z 26002KT 9999 FEW025 23/22 Q1010
Conditions at: NVSS (PEKOA ARPT/SANTO, VU) observed 1800 UTC 18 April 2019
Temperature: 23.0°C (73°F)
Dewpoint: 22.0°C (72°F) [RH = 94%]
Pressure (altimeter): 29.82 inches Hg (1010.0 mb)
Winds: from the W (260 degrees) at 2 MPH (2 knots; 1.0 m/s)
Visibility: 6 or more miles (10+ km)
Ceiling: at least 12,000 feet AGL
Clouds: few clouds at 2500 feet AGL
Weather: no significant weather observed at this time

METAR text: NVSS 181200Z 25003KT 9999 FEW025 24/24 Q1012
Conditions at: NVSS (PEKOA ARPT/SANTO, VU) observed 1200 UTC 18 April 2019
Temperature: 24.0°C (75°F)
Dewpoint: 24.0°C (75°F) [RH = 100%]
Pressure (altimeter): 29.88 inches Hg (1012.0 mb)
Winds: from the WSW (250 degrees) at 3 MPH (3 knots; 1.5 m/s)
Visibility: 6 or more miles (10+ km)
Ceiling: at least 12,000 feet AGL
Clouds: few clouds at 2500 feet AGL
Weather: no significant weather observed at this time

METAR text: NVSS 180900Z 25003KT 9999 FEW025 SCT300 24/23 Q1011
Conditions at: NVSS (PEKOA ARPT/SANTO, VU) observed 0900 UTC 18 April 2019
Temperature: 24.0°C (75°F)
Dewpoint: 23.0°C (73°F) [RH = 94%]
Pressure (altimeter): 29.85 inches Hg (1011.0 mb)
Winds: from the WSW (250 degrees) at 3 MPH (3 knots; 1.5 m/s)
Visibility: 6 or more miles (10+ km)
Ceiling: at least 12,000 feet AGL
Clouds: few clouds at 2500 feet AGL
scattered clouds at 30000 feet AGL
Weather: no significant weather observed at this time

METAR text: NVSS 180800Z METAR NVSP 180800Z
Conditions at: NVSS (PEKOA ARPT/SANTO, VU) observed 0800 UTC 18 April 2019
Temperature: missing
Dewpoint: missing
Pressure (altimeter): missing
Winds: missing
Visibility: missing
Ceiling: unknown
Clouds: missing
Weather: no significant weather observed at this time

METAR text: NVSS 180700Z METAR NVSP 180700Z
Conditions at: NVSS (PEKOA ARPT/SANTO, VU) observed 0700 UTC 18 April 2019
Temperature: missing
Dewpoint: missing
Pressure (altimeter): missing
Winds: missing
Visibility: missing
Ceiling: unknown
Clouds: missing
Weather: no significant weather observed at this time

METAR text: NVSS 180600Z 18002KT 9999 FEW025 SCT045 BKN120 28/24 Q1009
Conditions at: NVSS (PEKOA ARPT/SANTO, VU) observed 0600 UTC 18 April 2019
Temperature: 28.0°C (82°F)
Dewpoint: 24.0°C (75°F) [RH = 79%]
Pressure (altimeter): 29.79 inches Hg (1009.0 mb)
Winds: from the S (180 degrees) at 2 MPH (2 knots; 1.0 m/s)
Visibility: 6 or more miles (10+ km)
Ceiling: 12000 feet AGL
Clouds: few clouds at 2500 feet AGL
scattered clouds at 4500 feet AGL
broken clouds at 12000 feet AGL
Weather: no significant weather observed at this time

METAR text: NVSS 180500Z 17002KT 9999 FEW025 BKN120 29/24 Q1008
Conditions at: NVSS (PEKOA ARPT/SANTO, VU) observed 0500 UTC 18 April 2019
Temperature: 29.0°C (84°F)
Dewpoint: 24.0°C (75°F) [RH = 74%]
Pressure (altimeter): 29.76 inches Hg (1008.0 mb)
Winds: from the S (170 degrees) at 2 MPH (2 knots; 1.0 m/s)
Visibility: 6 or more miles (10+ km)
Ceiling: 12000 feet AGL
Clouds: few clouds at 2500 feet AGL
broken clouds at 12000 feet AGL
Weather: no significant weather observed at this time

METAR text: NVSS 180400Z 16003KT 9999 SCT025 BKN120 29/23 Q1008
Conditions at: NVSS (PEKOA ARPT/SANTO, VU) observed 0400 UTC 18 April 2019
Temperature: 29.0°C (84°F)
Dewpoint: 23.0°C (73°F) [RH = 70%]
Pressure (altimeter): 29.76 inches Hg (1008.0 mb)
Winds: from the SSE (160 degrees) at 3 MPH (3 knots; 1.5 m/s)
Visibility: 6 or more miles (10+ km)
Ceiling: 12000 feet AGL
Clouds: scattered clouds at 2500 feet AGL
broken clouds at 12000 feet AGL
Weather: no significant weather observed at this time

METAR text: NVSS 180300Z 08004KT 9999 SCT025 BKN120 30/23 Q1009
Conditions at: NVSS (PEKOA ARPT/SANTO, VU) observed 0300 UTC 18 April 2019
Temperature: 30.0°C (86°F)
Dewpoint: 23.0°C (73°F) [RH = 66%]
Pressure (altimeter): 29.79 inches Hg (1009.0 mb)
Winds: from the E (80 degrees) at 5 MPH (4 knots; 2.1 m/s)
Visibility: 6 or more miles (10+ km)
Ceiling: 12000 feet AGL
Clouds: scattered clouds at 2500 feet AGL
broken clouds at 12000 feet AGL
Weather: no significant weather observed at this time

METAR text: NVSS 180200Z 07004KT 9999 SCT025 BKN280 31/24 Q1009
Conditions at: NVSS (PEKOA ARPT/SANTO, VU) observed 0200 UTC 18 April 2019
Temperature: 31.0°C (88°F)
Dewpoint: 24.0°C (75°F) [RH = 66%]
Pressure (altimeter): 29.79 inches Hg (1009.0 mb)
Winds: from the ENE (70 degrees) at 5 MPH (4 knots; 2.1 m/s)
Visibility: 6 or more miles (10+ km)
Ceiling: 28000 feet AGL
Clouds: scattered clouds at 2500 feet AGL
broken clouds at 28000 feet AGL
Weather: no significant weather observed at this time

METAR text: NVSS 180100Z 07006KT 9999 SCT025 BKN280 30/24 Q1010
Conditions at: NVSS (PEKOA ARPT/SANTO, VU) observed 0100 UTC 18 April 2019
Temperature: 30.0°C (86°F)
Dewpoint: 24.0°C (75°F) [RH = 70%]
Pressure (altimeter): 29.82 inches Hg (1010.0 mb)
Winds: from the ENE (70 degrees) at 7 MPH (6 knots; 3.1 m/s)
Visibility: 6 or more miles (10+ km)
Ceiling: 28000 feet AGL
Clouds: scattered clouds at 2500 feet AGL
broken clouds at 28000 feet AGL
Weather: no significant weather observed at this time

METAR text: NVSS 180000Z 06006KT 9999 FEW025 SCT120 BKN280 30/24 Q1010
Conditions at: NVSS (PEKOA ARPT/SANTO, VU) observed 0000 UTC 18 April 2019
Temperature: 30.0°C (86°F)
Dewpoint: 24.0°C (75°F) [RH = 70%]
Pressure (altimeter): 29.82 inches Hg (1010.0 mb)
Winds: from the ENE (60 degrees) at 7 MPH (6 knots; 3.1 m/s)
Visibility: 6 or more miles (10+ km)
Ceiling: 28000 feet AGL
Clouds: few clouds at 2500 feet AGL
scattered clouds at 12000 feet AGL
broken clouds at 28000 feet AGL
Weather: no significant weather observed at this time

METAR text: NVSS 172300Z 06004KT 9999 FEW025 BKN120 30/25 Q1011
Conditions at: NVSS (PEKOA ARPT/SANTO, VU) observed 2300 UTC 17 April 2019
Temperature: 30.0°C (86°F)
Dewpoint: 25.0°C (77°F) [RH = 75%]
Pressure (altimeter): 29.85 inches Hg (1011.0 mb)
Winds: from the ENE (60 degrees) at 5 MPH (4 knots; 2.1 m/s)
Visibility: 6 or more miles (10+ km)
Ceiling: 12000 feet AGL
Clouds: few clouds at 2500 feet AGL
broken clouds at 12000 feet AGL
Weather: no significant weather observed at this time

METAR text: NVSS 172200Z 32004KT 9999 FEW025 BKN120 29/24 Q1011
Conditions at: NVSS (PEKOA ARPT/SANTO, VU) observed 2200 UTC 17 April 2019
Temperature: 29.0°C (84°F)
Dewpoint: 24.0°C (75°F) [RH = 74%]
Pressure (altimeter): 29.85 inches Hg (1011.0 mb)
Winds: from the NW (320 degrees) at 5 MPH (4 knots; 2.1 m/s)
Visibility: 6 or more miles (10+ km)
Ceiling: 12000 feet AGL
Clouds: few clouds at 2500 feet AGL
broken clouds at 12000 feet AGL
Weather: no significant weather observed at this time

METAR text: NVSS 172100Z 32007KT 9999 FEW025 BKN120 27/24 Q1010
Conditions at: NVSS (PEKOA ARPT/SANTO, VU) observed 2100 UTC 17 April 2019
Temperature: 27.0°C (81°F)
Dewpoint: 24.0°C (75°F) [RH = 84%]
Pressure (altimeter): 29.82 inches Hg (1010.0 mb)
Winds: from the NW (320 degrees) at 8 MPH (7 knots; 3.6 m/s)
Visibility: 6 or more miles (10+ km)
Ceiling: 12000 feet AGL
Clouds: few clouds at 2500 feet AGL
broken clouds at 12000 feet AGL
Weather: no significant weather observed at this time

METAR text: NVSS 172000Z 31003KT 9999 FEW025 SCT300 24/22 Q1010
Conditions at: NVSS (PEKOA ARPT/SANTO, VU) observed 2000 UTC 17 April 2019
Temperature: 24.0°C (75°F)
Dewpoint: 22.0°C (72°F) [RH = 89%]
Pressure (altimeter): 29.82 inches Hg (1010.0 mb)
Winds: from the NW (310 degrees) at 3 MPH (3 knots; 1.5 m/s)
Visibility: 6 or more miles (10+ km)
Ceiling: at least 12,000 feet AGL
Clouds: few clouds at 2500 feet AGL
scattered clouds at 30000 feet AGL
Weather: no significant weather observed at this time

METAR text: NVSS 171800Z 33005KT 9999 FEW025 23/23 Q1009
Conditions at: NVSS (PEKOA ARPT/SANTO, VU) observed 1800 UTC 17 April 2019
Temperature: 23.0°C (73°F)
Dewpoint: 23.0°C (73°F) [RH = 100%]
Pressure (altimeter): 29.79 inches Hg (1009.0 mb)
Winds: from the NNW (330 degrees) at 6 MPH (5 knots; 2.6 m/s)
Visibility: 6 or more miles (10+ km)
Ceiling: at least 12,000 feet AGL
Clouds: few clouds at 2500 feet AGL
Weather: no significant weather observed at this time

Forecast for: NVSS (PEKOA ARPT/SANTO, VU)
Text: TAF NVSS 181600Z 1818/1918 VRB03KT 9999 SCT020 BKN040 INTER 1820/1824 9000 -SHRA BKN018
Forecast period: 1800 to 2000 UTC 18 April 2019
Forecast type: FROM: standard forecast or significant change
Winds: variable direction winds at 3 MPH (3 knots; 1.5 m/s)
Visibility: 6 or more miles 10+ km)
Ceiling: 4000 feet AGL
Clouds: scattered clouds at 2000 feet AGL
broken clouds at 4000 feet AGL
Weather: no significant weather forecast for this period
Text: BECMG 1820/1822 12005KT
Forecast period: 2000 UTC 18 April 2019 to 0000 UTC 19 April 2019
Forecast type: TEMPORARY: The following changes expected for less than half the time period
Visibility: 6 miles (9 km)
Ceiling: 1800 feet AGL
Clouds: broken clouds at 1800 feet AGL
Weather: -SHRA  (light rain showers)
Text:
Forecast period: 2000 UTC 18 April 2019 to 1800 UTC 19 April 2019
Forecast type: BECOMING: Conditions expected to become as follows by 2200 UTC 18 April 2019
Winds: from the ESE (120 degrees) at 6 MPH (5 knots; 2.6 m/s)
Visibility: 6 or more miles 10+ km)
Ceiling: 4000 feet AGL
Clouds: scattered clouds at 2000 feet AGL
broken clouds at 4000 feet AGL
Weather: no significant weather forecast for this period